Time;durP1;ratioP1;P1;durP2;ratioP2;P2;SDS_P1;SDS_P2;PMS_P1;PMS_P2;Temp;Humidity;BMP_temperature;BMP_pressure;BME280_temperature;BME280_humidity;BME280_pressure;Samples;Min_cycle;Max_cycle;Signal;HPM_P1;HPM_P2
2023/10/09 00:10:45;;;;;;;37.17;22.08;;;15.10;99.90;;;;;;20761738;28;20516;-42
2023/10/09 00:20:54;;;;;;;34.67;20.70;;;15.10;99.90;;;;;;20760485;28;20033;-42
2023/10/09 00:30:54;;;;;;;33.08;19.67;;;15.10;99.90;;;;;;20762120;28;20037;-43
2023/10/09 00:41:10;;;;;;;29.27;18.88;;;15.00;99.90;;;;;;20760225;28;20128;-42
2023/10/09 00:51:18;;;;;;;29.52;17.90;;;15.00;99.90;;;;;;20757828;28;20519;-43
2023/10/09 01:01:19;;;;;;;21.52;15.48;;;15.20;99.90;;;;;;20761045;28;20120;-42
2023/10/09 01:11:29;;;;;;;27.67;17.88;;;15.20;99.90;;;;;;20754849;28;20160;-42
2023/10/09 01:21:31;;;;;;;27.10;17.00;;;15.40;99.90;;;;;;20754432;28;20397;-43
2023/10/09 01:31:33;;;;;;;23.05;16.10;;;15.40;99.90;;;;;;20758863;28;20689;-42
2023/10/09 01:41:34;;;;;;;26.10;16.63;;;15.60;99.90;;;;;;20758518;28;20128;-42
2023/10/09 01:51:36;;;;;;;25.73;15.95;;;15.80;99.90;;;;;;20750941;28;20507;-42
2023/10/09 02:01:41;;;;;;;21.48;15.45;;;15.90;99.90;;;;;;20748694;28;20076;-43
2023/10/09 02:11:45;;;;;;;23.35;14.43;;;15.90;99.90;;;;;;20748992;28;20049;-43
2023/10/09 02:21:45;;;;;;;17.20;12.07;;;15.80;99.90;;;;;;20754637;28;20658;-43
2023/10/09 02:31:51;;;;;;;25.27;17.20;;;15.80;99.90;;;;;;20755750;28;20095;-43
2023/10/09 02:42:19;;;;;;;19.80;15.45;;;15.70;99.90;;;;;;20741400;28;20060;-42
2023/10/09 02:52:24;;;;;;;22.37;14.93;;;15.80;99.90;;;;;;20750205;28;20038;-43
2023/10/09 03:02:25;;;;;;;22.20;16.38;;;15.80;99.90;;;;;;20752876;28;20053;-42
2023/10/09 03:12:28;;;;;;;20.52;13.95;;;15.90;99.90;;;;;;20743676;28;20061;-43
2023/10/09 03:22:30;;;;;;;25.23;15.13;;;16.00;99.90;;;;;;20767544;28;20200;-43
2023/10/09 03:32:31;;;;;;;20.02;13.90;;;15.90;99.90;;;;;;20750373;28;20041;-43
2023/10/09 03:42:33;;;;;;;21.95;14.38;;;16.00;99.90;;;;;;20743720;28;20041;-43
2023/10/09 03:52:35;;;;;;;17.13;11.00;;;16.00;99.90;;;;;;20747468;28;20722;-43
2023/10/09 04:02:35;;;;;;;20.00;11.88;;;16.10;99.90;;;;;;20761361;28;20053;-43
2023/10/09 04:12:39;;;;;;;15.82;9.90;;;16.00;99.90;;;;;;20780300;28;20087;-43
2023/10/09 04:23:05;;;;;;;17.23;10.32;;;16.30;99.90;;;;;;20763906;28;20041;-42
2023/10/09 04:33:11;;;;;;;14.43;8.88;;;16.30;99.90;;;;;;20758835;28;20045;-43
2023/10/09 04:43:20;;;;;;;14.85;9.15;;;16.20;99.90;;;;;;20757084;28;20037;-43
2023/10/09 04:53:23;;;;;;;17.70;8.88;;;16.30;99.90;;;;;;20761116;28;20033;-43
2023/10/09 05:03:27;;;;;;;16.38;8.55;;;16.60;99.90;;;;;;20759412;28;20145;-43
2023/10/09 05:24:15;;;;;;;15.43;9.48;;;16.60;99.90;;;;;;20751770;28;20038;-42
2023/10/09 05:34:19;;;;;;;14.05;8.25;;;16.70;99.90;;;;;;20773981;28;21845;-46
2023/10/09 05:45:30;;;;;;;14.65;9.00;;;16.70;99.90;;;;;;20781259;28;20044;-43
2023/10/09 06:05:40;;;;;;;12.63;8.68;;;16.60;99.90;;;;;;20770568;28;20424;-43
2023/10/09 06:25:51;;;;;;;13.45;8.63;;;16.60;99.90;;;;;;20747087;28;20037;-43
2023/10/09 06:35:54;;;;;;;13.52;8.50;;;16.60;99.90;;;;;;20765130;28;20048;-42
2023/10/09 07:16:38;;;;;;;18.00;12.20;;;16.80;99.90;;;;;;20761276;28;20444;-43
2023/10/09 07:26:47;;;;;;;11.68;7.55;;;17.00;99.90;;;;;;20772443;28;20042;-42
2023/10/09 07:36:49;;;;;;;11.25;6.70;;;17.20;99.90;;;;;;20757132;28;20033;-43
2023/10/09 07:46:52;;;;;;;13.57;6.95;;;17.20;99.90;;;;;;20741501;28;20049;-42
2023/10/09 07:56:53;;;;;;;15.40;9.05;;;17.40;99.90;;;;;;20785992;28;20053;-43
2023/10/09 08:06:57;;;;;;;12.40;7.57;;;17.50;99.90;;;;;;20786422;28;20041;-43
2023/10/09 08:27:46;;;;;;;10.00;6.55;;;17.80;99.90;;;;;;20609075;28;20037;-42
2023/10/09 08:37:48;;;;;;;10.23;7.30;;;17.80;99.90;;;;;;20756933;28;20492;-42
2023/10/09 08:47:52;;;;;;;17.08;8.40;;;18.00;99.80;;;;;;20751947;28;20056;-42
2023/10/09 08:57:53;;;;;;;14.60;7.30;;;18.30;95.20;;;;;;20755202;28;20076;-42
2023/10/09 09:07:59;;;;;;;12.93;7.57;;;18.80;55.70;;;;;;20755431;28;20443;-42
2023/10/09 09:18:10;;;;;;;13.93;6.70;;;19.00;42.10;;;;;;20766479;28;20041;-42
2023/10/09 09:28:21;;;;;;;12.07;6.70;;;19.00;34.50;;;;;;20764439;28;20045;-42
2023/10/09 09:38:23;;;;;;;12.52;5.60;;;19.20;35.00;;;;;;20742505;28;20033;-42
2023/10/09 09:48:24;;;;;;;13.00;4.78;;;19.40;7.40;;;;;;20790505;28;20052;-42
2023/10/09 09:58:42;;;;;;;10.90;5.80;;;19.60;1.00;;;;;;20788377;28;20033;-42
2023/10/09 10:08:42;;;;;;;11.73;5.70;;;19.60;1.00;;;;;;20783642;28;20506;-42
2023/10/09 10:18:53;;;;;;;16.63;5.88;;;19.60;1.00;;;;;;20789151;28;20042;-42
2023/10/09 10:29:34;;;;;;;9.73;5.35;;;19.80;1.00;;;;;;20787512;28;20456;-42
2023/10/09 10:39:50;;;;;;;12.18;5.68;;;20.00;1.00;;;;;;20787049;28;20040;-42
2023/10/09 10:50:11;;;;;;;13.90;5.43;;;20.10;1.00;;;;;;20784319;28;20049;-42
2023/10/09 11:00:14;;;;;;;10.52;5.70;;;20.10;1.00;;;;;;20789038;28;20041;-42
2023/10/09 11:10:28;;;;;;;11.80;5.28;;;20.10;1.00;;;;;;20783246;28;20137;-42
2023/10/09 11:20:32;;;;;;;9.93;5.40;;;20.30;1.00;;;;;;20789281;28;20445;-42
2023/10/09 11:30:34;;;;;;;12.40;5.38;;;20.40;1.00;;;;;;20788300;28;20068;-41
2023/10/09 11:51:17;;;;;;;12.13;7.53;;;20.50;1.00;;;;;;20741981;28;20077;-42
2023/10/09 12:01:17;;;;;;;11.75;7.05;;;20.50;1.00;;;;;;20727900;28;20092;-42
2023/10/09 12:11:28;;;;;;;11.60;5.57;;;20.70;1.00;;;;;;20753583;28;20049;-42
2023/10/09 12:21:29;;;;;;;14.05;5.70;;;20.70;1.00;;;;;;20751903;28;20386;-42
2023/10/09 12:31:33;;;;;;;13.77;5.47;;;20.60;1.00;;;;;;20759259;28;20045;-42
2023/10/09 12:41:41;;;;;;;12.43;5.45;;;20.30;1.00;;;;;;20769172;28;20046;-42
2023/10/09 12:51:41;;;;;;;10.45;5.15;;;20.20;1.00;;;;;;20755248;28;20095;-42
2023/10/09 13:01:42;;;;;;;10.70;4.95;;;20.20;1.00;;;;;;20760989;28;20045;-43
2023/10/09 13:11:43;;;;;;;10.30;5.07;;;20.00;1.00;;;;;;20770990;28;20048;-42
2023/10/09 13:21:44;;;;;;;13.18;4.90;;;19.90;1.00;;;;;;20777701;28;20545;-42
2023/10/09 13:31:47;;;;;;;12.98;7.47;;;19.90;1.00;;;;;;20778042;28;20044;-42
2023/10/09 13:41:57;;;;;;;9.98;4.75;;;20.00;1.00;;;;;;20767814;28;20112;-42
2023/10/09 13:52:01;;;;;;;9.32;5.07;;;20.10;1.00;;;;;;20766461;28;20064;-42
2023/10/09 14:02:08;;;;;;;10.68;5.70;;;19.80;1.00;;;;;;20758436;28;20156;-43
2023/10/09 14:12:10;;;;;;;12.40;5.57;;;19.70;1.00;;;;;;20773490;28;20132;-42
2023/10/09 14:22:10;;;;;;;9.35;5.13;;;19.70;1.00;;;;;;20767094;28;20048;-43
2023/10/09 14:32:14;;;;;;;12.85;6.15;;;19.70;1.00;;;;;;20774333;28;20428;-42
2023/10/09 14:42:20;;;;;;;18.27;11.05;;;19.80;1.00;;;;;;20777083;28;20069;-42
2023/10/09 14:52:21;;;;;;;15.50;8.77;;;19.90;1.00;;;;;;20774439;28;20075;-43
2023/10/09 15:02:23;;;;;;;14.38;6.57;;;19.80;1.00;;;;;;20760166;28;20037;-42
2023/10/09 15:12:24;;;;;;;11.73;6.65;;;19.90;1.00;;;;;;20754318;28;20092;-43
2023/10/09 15:22:28;;;;;;;12.13;6.53;;;19.80;1.00;;;;;;20754948;28;20124;-43
2023/10/09 15:32:28;;;;;;;10.45;6.25;;;19.80;1.00;;;;;;20751867;28;20049;-43
2023/10/09 15:42:29;;;;;;;11.80;6.53;;;19.60;1.00;;;;;;20755827;28;20326;-42
2023/10/09 15:52:29;;;;;;;14.45;6.38;;;19.80;1.00;;;;;;20762554;28;20548;-42
2023/10/09 16:02:30;;;;;;;15.50;7.23;;;19.60;1.00;;;;;;20762778;28;20044;-43
2023/10/09 16:12:31;;;;;;;13.05;6.63;;;19.60;1.00;;;;;;20776655;28;20057;-42
2023/10/09 16:22:32;;;;;;;17.42;7.38;;;19.40;1.00;;;;;;20760617;28;20034;-43
2023/10/09 16:32:33;;;;;;;14.32;7.07;;;19.20;1.00;;;;;;20758375;28;20509;-43
2023/10/09 16:42:35;;;;;;;14.88;7.90;;;19.10;1.00;;;;;;20723406;28;20041;-43
2023/10/09 16:52:39;;;;;;;13.57;7.28;;;19.00;2.60;;;;;;20774861;28;20041;-44
2023/10/09 17:02:40;;;;;;;19.48;9.32;;;18.80;5.80;;;;;;20768195;28;20484;-43
2023/10/09 17:12:45;;;;;;;25.30;9.25;;;18.80;10.70;;;;;;20744359;28;20576;-44
2023/10/09 17:22:46;;;;;;;15.02;8.35;;;18.70;14.40;;;;;;20760409;28;20030;-43
2023/10/09 17:32:47;;;;;;;15.82;8.43;;;18.60;22.80;;;;;;20756192;28;20060;-44
2023/10/09 17:42:50;;;;;;;14.65;9.20;;;18.60;21.30;;;;;;20762249;28;20091;-43
2023/10/09 17:52:54;;;;;;;15.75;8.10;;;18.60;20.60;;;;;;20758820;28;20048;-43
2023/10/09 18:02:54;;;;;;;16.05;8.65;;;18.50;32.10;;;;;;20702003;28;20037;-43
2023/10/09 18:12:55;;;;;;;15.07;8.18;;;18.40;31.20;;;;;;20736606;28;21029;-43
2023/10/09 18:22:56;;;;;;;12.73;6.43;;;18.40;36.40;;;;;;20732139;28;20042;-43
2023/10/09 18:32:56;;;;;;;16.98;9.40;;;18.30;42.80;;;;;;20725486;28;20180;-43
2023/10/09 18:42:58;;;;;;;14.50;7.40;;;18.20;61.00;;;;;;20749162;28;20025;-43
2023/10/09 18:53:02;;;;;;;10.82;6.43;;;18.20;56.30;;;;;;20758150;28;20038;-43
2023/10/09 19:03:03;;;;;;;10.00;6.15;;;18.10;50.30;;;;;;20750148;28;20038;-43
2023/10/09 19:13:06;;;;;;;12.73;7.18;;;18.00;53.20;;;;;;20748371;28;20140;-43
2023/10/09 19:23:11;;;;;;;9.02;5.90;;;17.90;70.30;;;;;;20755485;28;20073;-43
2023/10/09 19:33:11;;;;;;;14.68;7.28;;;17.80;82.50;;;;;;20743905;28;20041;-43
2023/10/09 19:43:15;;;;;;;16.00;8.82;;;17.80;92.40;;;;;;20769142;28;20088;-43
2023/10/09 19:53:15;;;;;;;12.98;7.80;;;17.70;99.90;;;;;;20763063;28;20088;-43
2023/10/09 20:03:19;;;;;;;10.90;7.00;;;17.70;99.90;;;;;;20762980;28;20037;-43
2023/10/09 20:13:19;;;;;;;13.90;7.88;;;17.70;99.10;;;;;;20755722;28;20056;-43
2023/10/09 20:23:23;;;;;;;14.18;9.52;;;17.70;99.90;;;;;;20765396;28;20036;-43
2023/10/09 20:33:24;;;;;;;17.95;10.48;;;17.60;99.90;;;;;;20766599;28;20489;-43
2023/10/09 20:43:27;;;;;;;16.42;9.57;;;17.60;99.90;;;;;;20768502;28;20102;-43
2023/10/09 20:53:28;;;;;;;12.98;8.73;;;17.70;99.90;;;;;;20768241;28;20065;-43
2023/10/09 21:03:29;;;;;;;14.87;10.50;;;17.60;99.90;;;;;;20757115;28;20060;-43
2023/10/09 21:13:31;;;;;;;15.68;9.73;;;17.50;99.90;;;;;;20774115;28;21056;-43
2023/10/09 21:23:31;;;;;;;17.25;10.40;;;17.40;99.90;;;;;;20769618;28;20089;-43
2023/10/09 21:33:32;;;;;;;16.33;9.47;;;17.40;99.90;;;;;;20750519;28;20104;-43
2023/10/09 21:43:33;;;;;;;12.87;9.40;;;17.40;99.90;;;;;;20745583;28;20472;-43
2023/10/09 21:53:34;;;;;;;15.05;8.75;;;17.30;99.90;;;;;;20750354;28;21045;-43
2023/10/09 22:03:35;;;;;;;16.45;10.38;;;17.10;99.90;;;;;;20749769;28;20053;-43
2023/10/09 22:13:36;;;;;;;13.18;9.73;;;17.10;99.90;;;;;;20745298;28;22331;-43
2023/10/09 22:23:45;;;;;;;18.13;10.75;;;17.10;99.90;;;;;;20737224;28;20045;-43
2023/10/09 22:33:49;;;;;;;14.82;9.70;;;17.00;99.90;;;;;;20749076;28;21429;-43
2023/10/09 22:43:50;;;;;;;15.45;10.93;;;16.90;99.90;;;;;;20752942;28;20083;-43
2023/10/09 22:53:52;;;;;;;16.52;9.82;;;16.90;99.90;;;;;;20764229;28;20199;-43
2023/10/09 23:14:15;;;;;;;14.05;9.68;;;16.90;99.90;;;;;;20772703;28;20037;-43
2023/10/09 23:24:26;;;;;;;13.40;8.50;;;16.90;99.90;;;;;;20771186;28;20149;-43
2023/10/09 23:34:33;;;;;;;12.38;8.50;;;16.90;99.90;;;;;;20767485;28;20044;-43
2023/10/09 23:44:34;;;;;;;12.00;7.75;;;16.80;99.90;;;;;;20769060;28;20033;-43
2023/10/09 23:54:36;;;;;;;15.65;9.40;;;16.70;99.90;;;;;;20767610;28;21291;-43
